createdAt,value
2017-09-17T00:00:43.974Z,86.94
2017-09-17T00:03:11.366Z,87.00
2017-09-17T00:05:38.766Z,87.01
2017-09-17T00:08:06.171Z,87.01
2017-09-17T00:10:33.582Z,86.73
2017-09-17T00:13:00.983Z,86.96
2017-09-17T00:15:28.386Z,87.00
2017-09-17T00:17:55.787Z,87.01
2017-09-17T00:20:23.295Z,86.93
2017-09-17T00:22:50.703Z,86.92
2017-09-17T00:25:18.142Z,87.07
2017-09-17T00:27:45.543Z,87.04
2017-09-17T00:30:12.949Z,86.71
2017-09-17T00:32:40.339Z,86.42
2017-09-17T00:35:07.738Z,86.45
2017-09-17T00:37:35.145Z,86.46
2017-09-17T00:40:02.548Z,86.43
2017-09-17T00:42:29.952Z,86.46
2017-09-17T00:44:57.379Z,86.77
2017-09-17T00:47:24.762Z,87.07
2017-09-17T00:49:52.163Z,87.12
2017-09-17T00:52:19.559Z,87.18
2017-09-17T00:54:46.962Z,87.19
2017-09-17T00:57:14.384Z,87.22
2017-09-17T00:59:41.798Z,87.37
2017-09-17T01:02:09.199Z,87.35
2017-09-17T01:04:36.607Z,87.43
2017-09-17T01:07:04.016Z,87.60
2017-09-17T01:09:31.414Z,87.75
2017-09-17T01:11:58.832Z,87.68
2017-09-17T01:14:26.250Z,87.67
2017-09-17T01:16:53.657Z,87.61
2017-09-17T01:19:21.051Z,87.56
2017-09-17T01:21:48.647Z,87.38
2017-09-17T01:24:16.059Z,87.27
2017-09-17T01:26:43.458Z,87.54
2017-09-17T01:29:10.866Z,87.52
2017-09-17T01:31:38.288Z,87.37
2017-09-17T01:34:05.714Z,87.38
2017-09-17T01:36:33.115Z,87.50
2017-09-17T01:39:00.531Z,87.64
2017-09-17T01:41:27.924Z,87.18
2017-09-17T01:43:55.310Z,87.24
2017-09-17T01:46:22.713Z,86.87
2017-09-17T01:48:50.099Z,86.79
2017-09-17T01:51:17.518Z,86.81
2017-09-17T01:53:44.919Z,87.01
2017-09-17T01:56:12.319Z,87.13
2017-09-17T01:58:39.723Z,87.44
2017-09-17T02:01:07.119Z,87.56
2017-09-17T02:03:34.524Z,87.49
2017-09-17T02:06:01.923Z,87.39
2017-09-17T02:08:29.364Z,87.71
2017-09-17T02:10:56.794Z,87.88
2017-09-17T02:13:24.221Z,88.02
2017-09-17T02:15:51.619Z,87.72
2017-09-17T02:18:19.010Z,87.41
2017-09-17T02:20:46.412Z,87.48
2017-09-17T02:23:13.806Z,87.41
2017-09-17T02:25:41.214Z,87.28
2017-09-17T02:28:08.603Z,87.44
2017-09-17T02:30:35.999Z,87.40
2017-09-17T02:33:03.387Z,87.83
2017-09-17T02:35:30.795Z,87.91
2017-09-17T02:37:58.187Z,87.80
2017-09-17T02:40:25.588Z,87.83
2017-09-17T02:42:52.987Z,87.92
2017-09-17T02:45:20.375Z,87.85
2017-09-17T02:47:47.796Z,87.73
2017-09-17T02:50:15.187Z,87.78
2017-09-17T02:52:42.589Z,87.68
2017-09-17T02:55:09.981Z,87.83
2017-09-17T02:57:37.478Z,87.86
2017-09-17T03:00:04.879Z,88.00
2017-09-17T03:02:32.274Z,87.70
2017-09-17T03:04:59.724Z,87.81
2017-09-17T03:07:27.095Z,87.80
2017-09-17T03:09:54.502Z,87.75
2017-09-17T03:12:21.890Z,87.67
2017-09-17T03:14:49.290Z,87.56
2017-09-17T03:17:16.683Z,87.67
2017-09-17T03:19:44.104Z,87.59
2017-09-17T03:22:11.507Z,87.73
2017-09-17T03:24:38.924Z,87.05
2017-09-17T03:27:06.340Z,86.79
2017-09-17T03:29:33.744Z,86.60
2017-09-17T03:32:01.154Z,86.23
2017-09-17T03:34:28.554Z,85.93
2017-09-17T03:36:55.959Z,86.01
2017-09-17T03:39:23.366Z,85.95
2017-09-17T03:41:50.783Z,85.75
2017-09-17T03:44:18.200Z,85.88
2017-09-17T03:46:45.595Z,86.02
2017-09-17T03:49:12.993Z,86.27
2017-09-17T03:51:40.394Z,86.44
2017-09-17T03:54:07.938Z,86.50
2017-09-17T03:56:35.347Z,86.76
2017-09-17T03:59:02.755Z,86.84
2017-09-17T04:01:30.151Z,86.59
2017-09-17T04:03:57.555Z,86.56
2017-09-17T04:06:24.952Z,86.69
2017-09-17T04:08:52.338Z,86.87
2017-09-17T04:11:19.748Z,86.96
2017-09-17T04:13:47.122Z,87.10
2017-09-17T04:16:14.592Z,87.17
2017-09-17T04:18:41.981Z,87.35
2017-09-17T04:21:09.391Z,87.52
2017-09-17T04:23:36.791Z,87.46
2017-09-17T04:26:04.182Z,87.20
2017-09-17T04:28:31.579Z,87.07
2017-09-17T04:30:58.977Z,86.57
2017-09-17T04:33:26.770Z,86.58
2017-09-17T04:35:54.165Z,86.58
2017-09-17T04:38:21.550Z,86.47
2017-09-17T04:40:48.967Z,86.15
2017-09-17T04:43:16.356Z,85.88
2017-09-17T04:45:43.759Z,86.28
2017-09-17T04:48:11.151Z,86.25
2017-09-17T04:50:38.695Z,86.26
2017-09-17T04:53:06.107Z,86.36
2017-09-17T04:55:33.508Z,86.51
2017-09-17T04:58:00.902Z,86.49
2017-09-17T05:00:28.315Z,86.65
2017-09-17T05:02:55.711Z,86.68
2017-09-17T05:05:23.129Z,86.83
2017-09-17T05:07:50.518Z,86.90
2017-09-17T05:10:17.921Z,86.91
2017-09-17T05:12:45.311Z,87.52
2017-09-17T05:15:12.710Z,87.33
2017-09-17T05:17:40.827Z,87.14
2017-09-17T05:20:08.771Z,87.07
2017-09-17T05:22:36.167Z,86.58
2017-09-17T05:25:03.594Z,86.52
2017-09-17T05:27:31.042Z,86.61
2017-09-17T05:29:58.527Z,86.69
2017-09-17T05:32:25.959Z,86.12
2017-09-17T05:34:53.352Z,86.18
2017-09-17T05:37:21.687Z,86.11
2017-09-17T05:39:49.074Z,86.01
2017-09-17T05:42:16.466Z,86.03
2017-09-17T05:44:43.859Z,86.04
2017-09-17T05:47:11.299Z,85.79
2017-09-17T05:49:38.683Z,85.66
2017-09-17T05:52:06.080Z,85.23
2017-09-17T05:54:33.498Z,85.25
2017-09-17T05:57:00.903Z,84.63
2017-09-17T05:59:28.310Z,84.72
2017-09-17T06:01:55.723Z,84.88
2017-09-17T06:04:23.152Z,84.79
2017-09-17T06:06:50.527Z,84.23
2017-09-17T06:09:18.424Z,83.62
2017-09-17T06:11:45.807Z,83.37
2017-09-17T06:14:13.202Z,83.75
2017-09-17T06:16:40.630Z,84.14
2017-09-17T06:19:08.036Z,84.22
2017-09-17T06:21:35.439Z,84.11
2017-09-17T06:24:02.842Z,83.27
2017-09-17T06:26:30.231Z,83.10
2017-09-17T06:28:57.637Z,83.26
2017-09-17T06:31:25.075Z,83.53
2017-09-17T06:33:52.467Z,83.77
2017-09-17T06:36:19.866Z,83.57
2017-09-17T06:38:47.284Z,83.62
2017-09-17T06:41:14.682Z,82.85
2017-09-17T06:43:42.065Z,81.94
2017-09-17T06:46:09.458Z,82.02
2017-09-17T06:48:36.855Z,82.07
2017-09-17T06:51:04.266Z,82.13
2017-09-17T06:53:31.763Z,81.52
2017-09-17T06:55:59.163Z,80.07
2017-09-17T06:58:26.787Z,79.30
2017-09-17T07:00:54.187Z,79.13
2017-09-17T07:03:21.563Z,79.65
2017-09-17T07:05:49.034Z,79.37
2017-09-17T07:08:16.410Z,78.27
2017-09-17T07:10:43.811Z,78.78
2017-09-17T07:13:11.195Z,77.13
2017-09-17T07:15:38.609Z,77.88
2017-09-17T07:18:05.999Z,78.41
2017-09-17T07:20:33.386Z,77.39
2017-09-17T07:23:00.793Z,77.38
2017-09-17T07:25:28.198Z,78.12
2017-09-17T07:27:55.599Z,78.92
2017-09-17T07:30:22.998Z,79.22
2017-09-17T07:32:50.394Z,78.91
2017-09-17T07:35:17.804Z,78.51
2017-09-17T07:37:45.222Z,78.56
2017-09-17T07:40:12.607Z,78.10
2017-09-17T07:42:39.999Z,75.17
2017-09-17T07:45:07.399Z,76.42
2017-09-17T07:47:34.798Z,75.76
2017-09-17T07:50:02.247Z,77.06
2017-09-17T07:52:29.631Z,76.01
2017-09-17T07:54:57.039Z,75.70
2017-09-17T07:57:24.431Z,75.56
2017-09-17T07:59:52.235Z,73.91
2017-09-17T08:02:19.627Z,72.44
2017-09-17T08:04:47.081Z,72.31
2017-09-17T08:07:14.470Z,73.17
2017-09-17T08:09:41.897Z,72.71
2017-09-17T08:12:09.339Z,71.86
2017-09-17T08:14:36.731Z,73.01
2017-09-17T08:17:04.172Z,71.89
2017-09-17T08:19:31.564Z,73.27
2017-09-17T08:21:59.148Z,72.66
2017-09-17T08:24:26.536Z,72.40
2017-09-17T08:26:53.943Z,71.32
2017-09-17T08:29:21.350Z,69.83
2017-09-17T08:31:48.760Z,72.12
2017-09-17T08:34:16.168Z,72.87
2017-09-17T08:36:43.558Z,70.84
2017-09-17T08:39:10.955Z,70.78
2017-09-17T08:41:38.347Z,70.87
2017-09-17T08:44:05.899Z,69.30
2017-09-17T08:46:33.321Z,69.94
2017-09-17T08:49:00.711Z,69.76
2017-09-17T08:51:28.315Z,68.66
2017-09-17T08:53:56.695Z,69.96
2017-09-17T08:56:24.086Z,70.43
2017-09-17T08:58:51.483Z,69.70
2017-09-17T09:01:18.896Z,69.06
2017-09-17T09:03:46.269Z,70.35
2017-09-17T09:06:13.674Z,69.85
2017-09-17T09:08:41.079Z,70.28
2017-09-17T09:11:08.468Z,71.14
2017-09-17T09:13:35.859Z,72.19
2017-09-17T09:16:03.285Z,69.10
2017-09-17T09:18:30.647Z,68.10
2017-09-17T09:20:58.042Z,70.20
2017-09-17T09:23:25.472Z,69.22
2017-09-17T09:25:52.867Z,69.04
2017-09-17T09:28:20.279Z,67.73
2017-09-17T09:30:47.672Z,66.70
2017-09-17T09:33:15.091Z,68.38
2017-09-17T09:35:42.478Z,67.61
2017-09-17T09:38:10.471Z,65.85
2017-09-17T09:40:37.866Z,68.26
2017-09-17T09:43:05.267Z,66.53
2017-09-17T09:45:32.666Z,65.17
2017-09-17T09:48:00.054Z,66.44
2017-09-17T09:50:27.468Z,66.05
2017-09-17T09:52:54.855Z,64.56
2017-09-17T09:55:22.243Z,62.40
2017-09-17T09:57:49.657Z,58.81
2017-09-17T10:00:17.036Z,61.84
2017-09-17T10:02:44.432Z,59.91
2017-09-17T10:05:11.814Z,57.69
2017-09-17T10:07:42.439Z,55.07
2017-09-17T10:10:09.830Z,56.38
2017-09-17T10:12:37.374Z,52.97
2017-09-17T10:15:04.768Z,52.61
2017-09-17T10:17:32.159Z,50.85
2017-09-17T10:19:59.563Z,53.85
2017-09-17T10:22:26.951Z,57.89
2017-09-17T10:24:54.347Z,58.54
2017-09-17T10:27:21.732Z,55.01
2017-09-17T10:29:49.126Z,50.89
2017-09-17T10:32:16.517Z,50.89
2017-09-17T10:34:43.904Z,51.56
2017-09-17T10:37:11.296Z,52.32
2017-09-17T10:39:38.686Z,53.18
2017-09-17T10:42:06.083Z,53.73
2017-09-17T10:44:33.470Z,53.06
2017-09-17T10:47:01.303Z,50.80
2017-09-17T10:49:28.700Z,52.65
2017-09-17T10:51:56.098Z,56.05
2017-09-17T10:54:23.504Z,51.56
2017-09-17T10:56:50.896Z,51.39
2017-09-17T10:59:18.286Z,51.23
2017-09-17T11:01:45.671Z,53.73
2017-09-17T11:04:13.088Z,49.90
2017-09-17T11:06:40.474Z,49.33
2017-09-17T11:09:07.870Z,49.67
2017-09-17T11:11:35.259Z,48.01
2017-09-17T11:14:02.646Z,49.62
2017-09-17T11:16:30.039Z,52.77
2017-09-17T11:18:57.428Z,53.25
2017-09-17T11:21:24.814Z,53.08
2017-09-17T11:23:52.204Z,54.08
2017-09-17T11:26:19.600Z,53.82
2017-09-17T11:28:48.941Z,53.31
2017-09-17T11:31:16.356Z,49.21
2017-09-17T11:33:43.759Z,48.26
2017-09-17T11:36:11.148Z,48.61
2017-09-17T11:38:38.552Z,50.09
2017-09-17T11:41:07.202Z,46.79
2017-09-17T11:43:34.634Z,44.01
2017-09-17T11:46:02.033Z,40.61
2017-09-17T11:48:29.424Z,44.54
2017-09-17T11:50:56.814Z,46.38
2017-09-17T11:53:24.310Z,44.30
2017-09-17T11:55:51.704Z,43.15
2017-09-17T11:58:19.094Z,41.46
2017-09-17T12:00:46.492Z,43.75
2017-09-17T12:03:13.930Z,43.81
2017-09-17T12:05:41.331Z,44.96
2017-09-17T12:08:08.720Z,44.39
2017-09-17T12:10:36.155Z,45.36
2017-09-17T12:13:03.548Z,43.43
2017-09-17T12:15:30.943Z,43.00
2017-09-17T12:17:58.331Z,43.22
2017-09-17T12:20:25.735Z,45.54
2017-09-17T12:22:53.120Z,41.38
2017-09-17T12:25:20.803Z,45.00
2017-09-17T12:27:48.186Z,41.48
2017-09-17T12:30:15.586Z,42.46
2017-09-17T12:32:42.984Z,44.83
2017-09-17T12:35:10.379Z,45.87
2017-09-17T12:37:37.783Z,46.81
2017-09-17T12:40:05.177Z,47.97
2017-09-17T12:42:32.579Z,43.19
2017-09-17T12:44:59.974Z,43.64
2017-09-17T12:47:27.371Z,45.43
2017-09-17T12:49:54.762Z,43.44
2017-09-17T12:52:22.163Z,44.80
2017-09-17T12:54:49.552Z,45.84
2017-09-17T12:57:16.950Z,46.41
2017-09-17T12:59:44.338Z,47.82
2017-09-17T13:02:11.835Z,45.41
2017-09-17T13:04:39.226Z,44.52
2017-09-17T13:07:06.619Z,46.29
2017-09-17T13:09:34.006Z,47.83
2017-09-17T13:12:01.392Z,48.63
2017-09-17T13:14:28.826Z,47.79
2017-09-17T13:16:56.215Z,47.83
2017-09-17T13:19:24.187Z,48.50
2017-09-17T13:21:51.578Z,48.01
2017-09-17T13:24:19.022Z,49.54
2017-09-17T13:26:46.395Z,50.01
2017-09-17T13:29:13.791Z,47.53
2017-09-17T13:31:42.362Z,52.13
2017-09-17T13:34:09.760Z,49.48
2017-09-17T13:36:37.156Z,50.18
2017-09-17T13:39:04.539Z,46.54
2017-09-17T13:41:31.940Z,43.51
2017-09-17T13:43:59.322Z,45.14
2017-09-17T13:46:26.740Z,41.48
2017-09-17T13:48:54.123Z,45.86
2017-09-17T13:51:21.517Z,46.26
2017-09-17T13:53:48.912Z,45.71
2017-09-17T13:56:16.296Z,45.23
2017-09-17T13:58:43.687Z,47.42
2017-09-17T14:01:13.463Z,45.23
2017-09-17T14:03:40.856Z,45.13
2017-09-17T14:06:08.243Z,47.32
2017-09-17T14:08:46.347Z,46.86
2017-09-17T14:11:14.087Z,46.32
2017-09-17T14:13:41.470Z,46.41
2017-09-17T14:16:08.865Z,47.52
2017-09-17T14:18:36.259Z,44.58
2017-09-17T14:21:03.670Z,45.43
2017-09-17T14:23:31.061Z,47.83
2017-09-17T14:25:58.456Z,49.23
2017-09-17T14:28:25.851Z,48.93
2017-09-17T14:30:53.235Z,45.95
2017-09-17T14:33:20.638Z,47.90
2017-09-17T14:35:48.018Z,47.27
2017-09-17T14:38:15.414Z,48.34
2017-09-17T14:40:42.811Z,44.41
2017-09-17T14:43:10.219Z,46.06
2017-09-17T14:45:37.614Z,45.87
2017-09-17T14:48:05.027Z,48.97
2017-09-17T14:50:32.415Z,48.00
2017-09-17T14:52:59.804Z,47.04
2017-09-17T14:55:27.202Z,48.02
2017-09-17T14:57:54.811Z,48.46
2017-09-17T15:00:22.230Z,48.68
2017-09-17T15:02:49.649Z,47.70
2017-09-17T15:05:17.046Z,49.69
2017-09-17T15:07:45.286Z,51.26
2017-09-17T15:10:13.054Z,52.31
2017-09-17T15:12:40.427Z,53.25
2017-09-17T15:15:07.820Z,51.42
2017-09-17T15:17:35.212Z,49.38
2017-09-17T15:20:02.598Z,51.99
2017-09-17T15:22:30.006Z,52.73
2017-09-17T15:24:57.398Z,54.68
2017-09-17T15:27:24.799Z,50.03
2017-09-17T15:29:52.190Z,49.99
2017-09-17T15:32:19.610Z,50.44
2017-09-17T15:34:47.015Z,52.82
2017-09-17T15:37:14.425Z,49.57
2017-09-17T15:39:41.808Z,50.80
2017-09-17T15:42:09.200Z,52.66
2017-09-17T15:44:36.599Z,50.79
2017-09-17T15:47:03.992Z,53.68
2017-09-17T15:49:31.416Z,51.82
2017-09-17T15:51:58.823Z,51.63
2017-09-17T15:54:26.371Z,55.80
2017-09-17T15:56:53.767Z,56.92
2017-09-17T15:59:21.163Z,56.91
2017-09-17T16:01:48.558Z,58.50
2017-09-17T16:04:15.956Z,57.06
2017-09-17T16:06:43.355Z,57.72
2017-09-17T16:09:10.749Z,59.16
2017-09-17T16:11:38.154Z,58.85
2017-09-17T16:14:05.554Z,59.64
2017-09-17T16:16:32.961Z,61.82
2017-09-17T16:19:00.360Z,62.26
2017-09-17T16:21:27.776Z,62.65
2017-09-17T16:23:55.160Z,62.91
2017-09-17T16:26:22.537Z,59.03
2017-09-17T16:28:50.354Z,59.83
2017-09-17T16:31:17.742Z,62.25
2017-09-17T16:33:45.131Z,60.46
2017-09-17T16:36:12.528Z,60.60
2017-09-17T16:38:39.915Z,60.22
2017-09-17T16:41:07.310Z,61.77
2017-09-17T16:43:34.696Z,62.71
2017-09-17T16:46:02.098Z,63.33
2017-09-17T16:48:29.560Z,62.35
2017-09-17T16:50:57.370Z,62.65
2017-09-17T16:53:24.759Z,62.78
2017-09-17T16:55:52.142Z,64.20
2017-09-17T16:58:19.547Z,63.33
2017-09-17T17:00:46.930Z,64.50
2017-09-17T17:03:14.327Z,65.38
2017-09-17T17:05:41.715Z,65.63
2017-09-17T17:08:09.115Z,63.94
2017-09-17T17:10:36.502Z,64.32
2017-09-17T17:13:03.899Z,64.78
2017-09-17T17:15:31.280Z,66.03
2017-09-17T17:17:58.670Z,67.16
2017-09-17T17:20:26.067Z,67.96
2017-09-17T17:22:53.454Z,68.42
2017-09-17T17:25:20.847Z,68.65
2017-09-17T17:27:48.235Z,68.84
2017-09-17T17:30:15.646Z,69.68
2017-09-17T17:32:43.030Z,69.88
2017-09-17T17:35:10.423Z,70.13
2017-09-17T17:37:37.820Z,70.69
2017-09-17T17:40:05.211Z,71.23
2017-09-17T17:42:32.606Z,71.39
2017-09-17T17:45:00.007Z,72.10
2017-09-17T17:47:27.424Z,72.37
2017-09-17T17:49:54.810Z,72.90
2017-09-17T17:52:22.207Z,73.29
2017-09-17T17:54:49.604Z,73.58
2017-09-17T17:57:16.992Z,73.65
2017-09-17T17:59:44.395Z,74.12
2017-09-17T18:02:11.847Z,74.45
2017-09-17T18:04:39.292Z,74.37
2017-09-17T18:07:06.685Z,74.60
2017-09-17T18:09:34.083Z,74.92
2017-09-17T18:12:01.479Z,75.09
2017-09-17T18:14:29.080Z,75.16
2017-09-17T18:16:56.495Z,75.40
2017-09-17T18:19:23.887Z,75.54
2017-09-17T18:21:51.292Z,75.67
2017-09-17T18:24:18.784Z,75.77
2017-09-17T18:26:47.148Z,75.90
2017-09-17T18:29:14.548Z,75.89
2017-09-17T18:31:41.956Z,75.97
2017-09-17T18:34:09.352Z,76.11
2017-09-17T18:36:36.787Z,76.44
2017-09-17T18:39:04.223Z,76.61
2017-09-17T18:41:31.612Z,76.64
2017-09-17T18:43:59.015Z,76.68
2017-09-17T18:46:26.411Z,76.72
2017-09-17T18:48:53.876Z,76.75
2017-09-17T18:51:21.264Z,76.77
2017-09-17T18:53:48.706Z,76.68
2017-09-17T18:56:16.121Z,76.49
2017-09-17T18:58:43.535Z,76.37
2017-09-17T19:01:10.934Z,76.57
2017-09-17T19:03:38.345Z,76.71
2017-09-17T19:06:05.719Z,76.79
2017-09-17T19:08:33.116Z,76.89
2017-09-17T19:11:00.663Z,76.74
2017-09-17T19:13:28.083Z,76.39
2017-09-17T19:15:55.476Z,76.56
2017-09-17T19:18:22.872Z,76.35
2017-09-17T19:20:50.264Z,76.75
2017-09-17T19:23:17.650Z,77.00
2017-09-17T19:25:45.051Z,77.09
2017-09-17T19:28:12.442Z,76.99
2017-09-17T19:30:39.841Z,77.06
2017-09-17T19:33:07.379Z,77.14
2017-09-17T19:35:34.765Z,77.12
2017-09-17T19:38:02.154Z,77.05
2017-09-17T19:40:29.550Z,76.98
2017-09-17T19:42:56.944Z,77.05
2017-09-17T19:45:24.336Z,77.00
2017-09-17T19:47:51.718Z,77.04
2017-09-17T19:50:19.116Z,76.97
2017-09-17T19:52:46.504Z,77.00
2017-09-17T19:55:14.059Z,77.20
2017-09-17T19:57:41.454Z,77.40
2017-09-17T20:00:08.855Z,77.47
2017-09-17T20:02:36.243Z,77.20
2017-09-17T20:05:03.637Z,77.14
2017-09-17T20:07:31.039Z,76.98
2017-09-17T20:09:58.428Z,77.29
2017-09-17T20:12:25.971Z,77.51
2017-09-17T20:14:53.359Z,77.67
2017-09-17T20:17:20.751Z,77.83
2017-09-17T20:19:48.145Z,78.07
2017-09-17T20:22:15.529Z,78.22
2017-09-17T20:24:42.931Z,78.37
2017-09-17T20:27:10.315Z,78.73
2017-09-17T20:29:37.739Z,78.66
2017-09-17T20:32:05.122Z,78.81
2017-09-17T20:34:32.511Z,78.98
2017-09-17T20:36:59.907Z,79.09
2017-09-17T20:39:27.298Z,79.48
2017-09-17T20:41:55.660Z,79.87
2017-09-17T20:44:23.047Z,80.04
2017-09-17T20:46:50.474Z,80.07
2017-09-17T20:49:17.863Z,80.31
2017-09-17T20:51:45.252Z,80.36
2017-09-17T20:54:12.643Z,80.41
2017-09-17T20:56:40.027Z,80.45
2017-09-17T20:59:07.431Z,80.59
2017-09-17T21:01:34.827Z,80.74
2017-09-17T21:04:02.382Z,80.89
2017-09-17T21:06:29.768Z,80.87
2017-09-17T21:08:57.167Z,81.12
2017-09-17T21:11:24.571Z,81.07
2017-09-17T21:13:51.966Z,81.05
2017-09-17T21:16:19.371Z,81.46
2017-09-17T21:18:46.766Z,81.20
2017-09-17T21:21:14.322Z,81.16
2017-09-17T21:23:41.723Z,81.05
2017-09-17T21:26:09.119Z,81.07
2017-09-17T21:28:36.524Z,81.13
2017-09-17T21:31:03.919Z,81.12
2017-09-17T21:33:31.322Z,81.13
2017-09-17T21:35:58.722Z,81.26
2017-09-17T21:38:26.114Z,81.39
2017-09-17T21:40:53.515Z,81.59
2017-09-17T21:43:20.918Z,81.91
2017-09-17T21:45:48.335Z,81.88
2017-09-17T21:48:15.731Z,81.90
2017-09-17T21:50:43.143Z,81.91
2017-09-17T21:53:10.542Z,81.97
2017-09-17T21:55:37.951Z,81.82
2017-09-17T21:58:05.342Z,81.83
2017-09-17T22:00:32.738Z,81.97
2017-09-17T22:03:00.144Z,81.97
2017-09-17T22:05:27.542Z,81.77
2017-09-17T22:07:55.050Z,82.02
2017-09-17T22:10:22.452Z,82.34
2017-09-17T22:12:49.852Z,82.51
2017-09-17T22:15:17.255Z,82.67
2017-09-17T22:17:44.657Z,82.69
2017-09-17T22:20:12.051Z,82.81
2017-09-17T22:22:39.444Z,82.78
2017-09-17T22:25:06.984Z,82.06
2017-09-17T22:27:34.382Z,82.09
2017-09-17T22:30:01.790Z,81.49
2017-09-17T22:32:29.184Z,81.25
2017-09-17T22:34:56.574Z,80.62
2017-09-17T22:37:23.976Z,80.58
2017-09-17T22:39:51.370Z,80.79
2017-09-17T22:42:18.879Z,81.19
2017-09-17T22:44:46.274Z,81.42
2017-09-17T22:47:13.669Z,81.51
2017-09-17T22:49:41.067Z,81.64
2017-09-17T22:52:08.462Z,81.97
2017-09-17T22:54:35.855Z,82.16
2017-09-17T22:57:03.273Z,82.31
2017-09-17T22:59:30.708Z,82.59
2017-09-17T23:01:58.107Z,82.83
2017-09-17T23:04:25.507Z,83.17
2017-09-17T23:06:52.906Z,83.55
2017-09-17T23:09:20.304Z,83.70
2017-09-17T23:11:47.878Z,84.08
2017-09-17T23:14:15.271Z,84.22
2017-09-17T23:16:42.667Z,84.44
2017-09-17T23:19:10.071Z,84.48
2017-09-17T23:21:37.467Z,84.36
2017-09-17T23:24:04.869Z,84.36
2017-09-17T23:26:32.263Z,84.48
2017-09-17T23:28:59.673Z,84.67
2017-09-17T23:31:27.067Z,85.04
2017-09-17T23:33:54.462Z,85.38
2017-09-17T23:36:21.862Z,85.60
2017-09-17T23:38:49.259Z,85.57
2017-09-17T23:41:16.663Z,85.56
2017-09-17T23:43:44.060Z,85.65
2017-09-17T23:46:11.611Z,85.63
2017-09-17T23:48:39.013Z,85.62
2017-09-17T23:51:06.404Z,85.68
2017-09-17T23:53:39.446Z,85.81
2017-09-17T23:56:06.847Z,85.89
2017-09-17T23:58:34.255Z,86.01
